sensor_id;sensor_type;location;lat;lon;timestamp;P1;durP1;ratioP1;P2;durP2;ratioP2
912;SDS011;443;51.448;7.028;2023-02-23T00:00:13;35.13;;;21.70;;
912;SDS011;443;51.448;7.028;2023-02-23T00:02:45;26.47;;;20.93;;
912;SDS011;443;51.448;7.028;2023-02-23T00:05:13;25.13;;;21.10;;
912;SDS011;443;51.448;7.028;2023-02-23T00:07:40;35.33;;;21.40;;
912;SDS011;443;51.448;7.028;2023-02-23T00:10:10;31.03;;;22.73;;
912;SDS011;443;51.448;7.028;2023-02-23T00:12:38;29.73;;;21.17;;
912;SDS011;443;51.448;7.028;2023-02-23T00:15:05;37.27;;;22.20;;
912;SDS011;443;51.448;7.028;2023-02-23T00:17:34;30.93;;;22.53;;
912;SDS011;443;51.448;7.028;2023-02-23T00:20:02;30.37;;;22.60;;
912;SDS011;443;51.448;7.028;2023-02-23T00:22:35;33.23;;;23.50;;
912;SDS011;443;51.448;7.028;2023-02-23T00:25:04;37.67;;;24.47;;
912;SDS011;443;51.448;7.028;2023-02-23T00:27:33;30.47;;;23.07;;
912;SDS011;443;51.448;7.028;2023-02-23T00:30:02;29.70;;;21.73;;
912;SDS011;443;51.448;7.028;2023-02-23T00:32:31;32.70;;;22.70;;
912;SDS011;443;51.448;7.028;2023-02-23T00:35:00;29.33;;;23.97;;
912;SDS011;443;51.448;7.028;2023-02-23T00:37:27;37.80;;;23.40;;
912;SDS011;443;51.448;7.028;2023-02-23T00:39:54;29.97;;;21.97;;
912;SDS011;443;51.448;7.028;2023-02-23T00:42:21;35.73;;;24.20;;
912;SDS011;443;51.448;7.028;2023-02-23T00:44:48;34.07;;;23.87;;
912;SDS011;443;51.448;7.028;2023-02-23T00:47:15;38.90;;;21.50;;
912;SDS011;443;51.448;7.028;2023-02-23T00:49:42;38.53;;;24.30;;
912;SDS011;443;51.448;7.028;2023-02-23T00:52:11;35.10;;;23.40;;
912;SDS011;443;51.448;7.028;2023-02-23T00:54:39;37.77;;;23.00;;
912;SDS011;443;51.448;7.028;2023-02-23T00:57:07;38.67;;;26.63;;
912;SDS011;443;51.448;7.028;2023-02-23T00:59:34;32.40;;;23.90;;
912;SDS011;443;51.448;7.028;2023-02-23T01:02:01;33.50;;;24.27;;
912;SDS011;443;51.448;7.028;2023-02-23T01:04:27;37.17;;;24.67;;
912;SDS011;443;51.448;7.028;2023-02-23T01:06:54;33.80;;;22.67;;
912;SDS011;443;51.448;7.028;2023-02-23T01:09:22;32.80;;;22.13;;
912;SDS011;443;51.448;7.028;2023-02-23T01:11:53;39.37;;;23.20;;
912;SDS011;443;51.448;7.028;2023-02-23T01:14:21;33.87;;;26.30;;
912;SDS011;443;51.448;7.028;2023-02-23T01:16:49;32.83;;;23.60;;
912;SDS011;443;51.448;7.028;2023-02-23T01:19:16;41.97;;;25.13;;
912;SDS011;443;51.448;7.028;2023-02-23T01:21:42;30.70;;;22.10;;
912;SDS011;443;51.448;7.028;2023-02-23T01:24:09;34.20;;;23.87;;
912;SDS011;443;51.448;7.028;2023-02-23T01:26:39;36.07;;;22.93;;
912;SDS011;443;51.448;7.028;2023-02-23T01:29:09;35.47;;;23.77;;
912;SDS011;443;51.448;7.028;2023-02-23T01:31:38;41.10;;;25.90;;
912;SDS011;443;51.448;7.028;2023-02-23T01:34:06;42.20;;;25.27;;
912;SDS011;443;51.448;7.028;2023-02-23T01:36:36;48.43;;;28.10;;
912;SDS011;443;51.448;7.028;2023-02-23T01:39:05;52.07;;;26.43;;
912;SDS011;443;51.448;7.028;2023-02-23T01:41:33;43.27;;;27.53;;
912;SDS011;443;51.448;7.028;2023-02-23T01:44:04;42.17;;;27.60;;
912;SDS011;443;51.448;7.028;2023-02-23T01:46:32;44.83;;;29.30;;
912;SDS011;443;51.448;7.028;2023-02-23T01:49:00;38.47;;;25.90;;
912;SDS011;443;51.448;7.028;2023-02-23T01:51:29;43.87;;;27.23;;
912;SDS011;443;51.448;7.028;2023-02-23T01:53:59;46.33;;;27.30;;
912;SDS011;443;51.448;7.028;2023-02-23T01:56:31;51.80;;;30.20;;
912;SDS011;443;51.448;7.028;2023-02-23T01:59:08;47.70;;;31.63;;
912;SDS011;443;51.448;7.028;2023-02-23T02:01:37;56.97;;;32.50;;
912;SDS011;443;51.448;7.028;2023-02-23T02:04:06;48.40;;;28.10;;
912;SDS011;443;51.448;7.028;2023-02-23T02:06:34;54.03;;;30.90;;
912;SDS011;443;51.448;7.028;2023-02-23T02:09:03;51.50;;;29.63;;
912;SDS011;443;51.448;7.028;2023-02-23T02:11:34;44.53;;;28.33;;
912;SDS011;443;51.448;7.028;2023-02-23T02:14:03;50.27;;;28.27;;
912;SDS011;443;51.448;7.028;2023-02-23T02:16:42;49.50;;;30.07;;
912;SDS011;443;51.448;7.028;2023-02-23T02:19:30;41.80;;;26.30;;
912;SDS011;443;51.448;7.028;2023-02-23T02:22:24;53.90;;;27.23;;
912;SDS011;443;51.448;7.028;2023-02-23T02:25:30;49.30;;;27.70;;
912;SDS011;443;51.448;7.028;2023-02-23T02:31:23;41.00;;;27.20;;
912;SDS011;443;51.448;7.028;2023-02-23T02:40:21;42.77;;;28.50;;
912;SDS011;443;51.448;7.028;2023-02-23T02:42:56;51.93;;;29.17;;
912;SDS011;443;51.448;7.028;2023-02-23T02:45:26;47.03;;;29.13;;
912;SDS011;443;51.448;7.028;2023-02-23T02:48:01;35.03;;;23.13;;
912;SDS011;443;51.448;7.028;2023-02-23T02:50:38;34.40;;;25.43;;
912;SDS011;443;51.448;7.028;2023-02-23T02:53:12;46.20;;;30.10;;
912;SDS011;443;51.448;7.028;2023-02-23T02:55:45;43.30;;;25.90;;
912;SDS011;443;51.448;7.028;2023-02-23T02:58:13;42.07;;;25.73;;
912;SDS011;443;51.448;7.028;2023-02-23T03:00:44;41.87;;;28.07;;
912;SDS011;443;51.448;7.028;2023-02-23T03:03:31;45.77;;;30.10;;
912;SDS011;443;51.448;7.028;2023-02-23T03:06:19;42.30;;;28.53;;
912;SDS011;443;51.448;7.028;2023-02-23T03:09:13;46.60;;;26.93;;
912;SDS011;443;51.448;7.028;2023-02-23T03:12:09;42.10;;;26.60;;
912;SDS011;443;51.448;7.028;2023-02-23T03:15:03;50.10;;;27.30;;
912;SDS011;443;51.448;7.028;2023-02-23T03:17:59;45.90;;;27.27;;
912;SDS011;443;51.448;7.028;2023-02-23T03:20:53;39.37;;;24.37;;
912;SDS011;443;51.448;7.028;2023-02-23T03:23:49;39.77;;;24.43;;
912;SDS011;443;51.448;7.028;2023-02-23T03:26:41;40.80;;;24.40;;
912;SDS011;443;51.448;7.028;2023-02-23T03:29:29;39.37;;;25.60;;
912;SDS011;443;51.448;7.028;2023-02-23T03:32:21;38.43;;;24.50;;
912;SDS011;443;51.448;7.028;2023-02-23T03:35:11;43.27;;;27.07;;
912;SDS011;443;51.448;7.028;2023-02-23T03:38:02;39.60;;;25.07;;
912;SDS011;443;51.448;7.028;2023-02-23T03:40:52;42.50;;;25.60;;
912;SDS011;443;51.448;7.028;2023-02-23T03:43:40;41.10;;;25.67;;
912;SDS011;443;51.448;7.028;2023-02-23T03:46:29;39.30;;;25.03;;
912;SDS011;443;51.448;7.028;2023-02-23T03:49:16;38.43;;;26.27;;
912;SDS011;443;51.448;7.028;2023-02-23T03:52:04;41.50;;;25.60;;
912;SDS011;443;51.448;7.028;2023-02-23T03:54:55;41.37;;;26.07;;
912;SDS011;443;51.448;7.028;2023-02-23T03:57:41;35.70;;;23.33;;
912;SDS011;443;51.448;7.028;2023-02-23T04:00:31;40.60;;;25.27;;
912;SDS011;443;51.448;7.028;2023-02-23T04:03:18;38.87;;;23.40;;
912;SDS011;443;51.448;7.028;2023-02-23T04:06:06;41.40;;;25.33;;
912;SDS011;443;51.448;7.028;2023-02-23T04:08:53;34.00;;;22.73;;
912;SDS011;443;51.448;7.028;2023-02-23T04:11:41;38.60;;;24.73;;
912;SDS011;443;51.448;7.028;2023-02-23T04:14:33;36.57;;;23.53;;
912;SDS011;443;51.448;7.028;2023-02-23T04:17:05;40.03;;;24.17;;
912;SDS011;443;51.448;7.028;2023-02-23T04:19:32;36.17;;;22.80;;
912;SDS011;443;51.448;7.028;2023-02-23T04:21:58;42.53;;;25.93;;
912;SDS011;443;51.448;7.028;2023-02-23T04:24:25;38.50;;;24.37;;
912;SDS011;443;51.448;7.028;2023-02-23T04:26:52;45.63;;;25.73;;
912;SDS011;443;51.448;7.028;2023-02-23T04:29:19;39.83;;;24.37;;
912;SDS011;443;51.448;7.028;2023-02-23T04:31:45;41.13;;;24.53;;
912;SDS011;443;51.448;7.028;2023-02-23T04:34:14;36.20;;;22.60;;
912;SDS011;443;51.448;7.028;2023-02-23T04:36:40;41.90;;;23.53;;
912;SDS011;443;51.448;7.028;2023-02-23T04:39:07;46.30;;;24.43;;
912;SDS011;443;51.448;7.028;2023-02-23T04:41:34;43.07;;;26.77;;
912;SDS011;443;51.448;7.028;2023-02-23T04:44:00;50.80;;;26.90;;
912;SDS011;443;51.448;7.028;2023-02-23T04:46:28;44.27;;;25.80;;
912;SDS011;443;51.448;7.028;2023-02-23T04:48:55;43.67;;;25.90;;
912;SDS011;443;51.448;7.028;2023-02-23T04:51:23;51.10;;;29.13;;
912;SDS011;443;51.448;7.028;2023-02-23T04:53:54;44.87;;;25.40;;
912;SDS011;443;51.448;7.028;2023-02-23T04:56:21;48.13;;;26.43;;
912;SDS011;443;51.448;7.028;2023-02-23T04:58:48;44.53;;;29.57;;
912;SDS011;443;51.448;7.028;2023-02-23T05:01:15;43.97;;;27.23;;
912;SDS011;443;51.448;7.028;2023-02-23T05:03:42;46.87;;;28.00;;
912;SDS011;443;51.448;7.028;2023-02-23T05:06:08;51.83;;;27.10;;
912;SDS011;443;51.448;7.028;2023-02-23T05:08:37;48.30;;;26.50;;
912;SDS011;443;51.448;7.028;2023-02-23T05:11:04;56.63;;;29.10;;
912;SDS011;443;51.448;7.028;2023-02-23T05:13:31;48.63;;;28.93;;
912;SDS011;443;51.448;7.028;2023-02-23T05:15:58;53.27;;;29.70;;
912;SDS011;443;51.448;7.028;2023-02-23T05:18:27;49.13;;;27.40;;
912;SDS011;443;51.448;7.028;2023-02-23T05:21:00;53.70;;;27.80;;
912;SDS011;443;51.448;7.028;2023-02-23T05:23:28;52.87;;;28.13;;
912;SDS011;443;51.448;7.028;2023-02-23T05:25:59;53.20;;;27.40;;
912;SDS011;443;51.448;7.028;2023-02-23T05:28:28;47.90;;;27.60;;
912;SDS011;443;51.448;7.028;2023-02-23T05:30:55;49.57;;;29.40;;
912;SDS011;443;51.448;7.028;2023-02-23T05:33:21;51.93;;;31.87;;
912;SDS011;443;51.448;7.028;2023-02-23T05:35:48;53.00;;;29.03;;
912;SDS011;443;51.448;7.028;2023-02-23T05:38:15;50.87;;;27.10;;
912;SDS011;443;51.448;7.028;2023-02-23T05:40:42;48.50;;;26.90;;
912;SDS011;443;51.448;7.028;2023-02-23T05:43:10;53.63;;;27.97;;
912;SDS011;443;51.448;7.028;2023-02-23T05:45:38;52.43;;;28.70;;
912;SDS011;443;51.448;7.028;2023-02-23T05:48:05;48.93;;;27.53;;
912;SDS011;443;51.448;7.028;2023-02-23T05:50:32;54.17;;;30.07;;
912;SDS011;443;51.448;7.028;2023-02-23T05:52:59;54.37;;;29.00;;
912;SDS011;443;51.448;7.028;2023-02-23T05:55:26;52.77;;;28.93;;
912;SDS011;443;51.448;7.028;2023-02-23T05:57:53;57.00;;;29.97;;
912;SDS011;443;51.448;7.028;2023-02-23T06:00:21;56.63;;;28.47;;
912;SDS011;443;51.448;7.028;2023-02-23T06:02:49;51.70;;;31.90;;
912;SDS011;443;51.448;7.028;2023-02-23T06:05:17;56.23;;;32.30;;
912;SDS011;443;51.448;7.028;2023-02-23T06:07:44;55.93;;;30.57;;
912;SDS011;443;51.448;7.028;2023-02-23T06:10:12;47.90;;;28.80;;
912;SDS011;443;51.448;7.028;2023-02-23T06:12:38;60.13;;;32.63;;
912;SDS011;443;51.448;7.028;2023-02-23T06:15:06;48.60;;;28.23;;
912;SDS011;443;51.448;7.028;2023-02-23T06:17:35;51.20;;;29.50;;
912;SDS011;443;51.448;7.028;2023-02-23T06:20:02;41.70;;;26.57;;
912;SDS011;443;51.448;7.028;2023-02-23T06:22:31;49.40;;;27.30;;
912;SDS011;443;51.448;7.028;2023-02-23T06:24:58;54.40;;;28.97;;
912;SDS011;443;51.448;7.028;2023-02-23T06:27:26;43.70;;;25.50;;
912;SDS011;443;51.448;7.028;2023-02-23T06:29:53;53.43;;;29.10;;
912;SDS011;443;51.448;7.028;2023-02-23T06:32:20;48.03;;;30.40;;
912;SDS011;443;51.448;7.028;2023-02-23T06:34:48;46.47;;;28.60;;
912;SDS011;443;51.448;7.028;2023-02-23T06:37:15;52.83;;;30.90;;
912;SDS011;443;51.448;7.028;2023-02-23T06:39:42;42.50;;;26.70;;
912;SDS011;443;51.448;7.028;2023-02-23T06:42:08;49.07;;;28.07;;
912;SDS011;443;51.448;7.028;2023-02-23T06:44:36;46.20;;;29.43;;
912;SDS011;443;51.448;7.028;2023-02-23T06:47:04;49.93;;;29.63;;
912;SDS011;443;51.448;7.028;2023-02-23T06:49:31;44.40;;;27.17;;
912;SDS011;443;51.448;7.028;2023-02-23T06:51:59;50.23;;;26.80;;
912;SDS011;443;51.448;7.028;2023-02-23T06:54:26;41.83;;;25.70;;
912;SDS011;443;51.448;7.028;2023-02-23T06:56:53;43.27;;;27.73;;
912;SDS011;443;51.448;7.028;2023-02-23T06:59:20;48.60;;;27.50;;
912;SDS011;443;51.448;7.028;2023-02-23T07:01:48;51.80;;;26.70;;
912;SDS011;443;51.448;7.028;2023-02-23T07:04:15;45.07;;;27.00;;
912;SDS011;443;51.448;7.028;2023-02-23T07:06:42;54.17;;;28.83;;
912;SDS011;443;51.448;7.028;2023-02-23T07:09:10;42.27;;;26.90;;
912;SDS011;443;51.448;7.028;2023-02-23T07:11:38;50.97;;;31.23;;
912;SDS011;443;51.448;7.028;2023-02-23T07:14:05;46.90;;;28.20;;
912;SDS011;443;51.448;7.028;2023-02-23T07:16:31;46.23;;;30.20;;
912;SDS011;443;51.448;7.028;2023-02-23T07:18:58;52.43;;;29.37;;
912;SDS011;443;51.448;7.028;2023-02-23T07:21:25;47.07;;;29.47;;
912;SDS011;443;51.448;7.028;2023-02-23T07:23:52;47.47;;;28.80;;
912;SDS011;443;51.448;7.028;2023-02-23T07:26:21;49.20;;;29.90;;
912;SDS011;443;51.448;7.028;2023-02-23T07:28:47;49.03;;;27.17;;
912;SDS011;443;51.448;7.028;2023-02-23T07:31:15;51.50;;;28.47;;
912;SDS011;443;51.448;7.028;2023-02-23T07:33:41;43.90;;;27.27;;
912;SDS011;443;51.448;7.028;2023-02-23T07:36:08;50.90;;;29.10;;
912;SDS011;443;51.448;7.028;2023-02-23T07:38:36;46.80;;;26.77;;
912;SDS011;443;51.448;7.028;2023-02-23T07:41:04;41.07;;;25.10;;
912;SDS011;443;51.448;7.028;2023-02-23T07:43:32;48.77;;;26.90;;
912;SDS011;443;51.448;7.028;2023-02-23T07:46:00;39.20;;;24.60;;
912;SDS011;443;51.448;7.028;2023-02-23T07:48:27;39.70;;;26.53;;
912;SDS011;443;51.448;7.028;2023-02-23T07:50:54;44.43;;;25.70;;
912;SDS011;443;51.448;7.028;2023-02-23T07:53:21;41.43;;;28.40;;
912;SDS011;443;51.448;7.028;2023-02-23T07:55:54;34.30;;;22.10;;
912;SDS011;443;51.448;7.028;2023-02-23T07:58:21;35.80;;;23.80;;
912;SDS011;443;51.448;7.028;2023-02-23T08:00:49;40.43;;;26.50;;
912;SDS011;443;51.448;7.028;2023-02-23T08:03:15;41.70;;;22.87;;
912;SDS011;443;51.448;7.028;2023-02-23T08:05:43;40.87;;;24.47;;
912;SDS011;443;51.448;7.028;2023-02-23T08:08:10;33.07;;;21.50;;
912;SDS011;443;51.448;7.028;2023-02-23T08:10:36;35.87;;;21.50;;
912;SDS011;443;51.448;7.028;2023-02-23T08:13:03;37.07;;;22.50;;
912;SDS011;443;51.448;7.028;2023-02-23T08:15:31;35.97;;;21.13;;
912;SDS011;443;51.448;7.028;2023-02-23T08:17:59;38.20;;;21.60;;
912;SDS011;443;51.448;7.028;2023-02-23T08:20:25;34.80;;;19.73;;
912;SDS011;443;51.448;7.028;2023-02-23T08:22:52;30.70;;;18.90;;
912;SDS011;443;51.448;7.028;2023-02-23T08:25:20;29.77;;;19.00;;
912;SDS011;443;51.448;7.028;2023-02-23T08:27:47;29.50;;;19.10;;
912;SDS011;443;51.448;7.028;2023-02-23T08:30:16;32.57;;;20.47;;
912;SDS011;443;51.448;7.028;2023-02-23T08:32:44;31.77;;;20.63;;
912;SDS011;443;51.448;7.028;2023-02-23T08:35:12;34.67;;;18.40;;
912;SDS011;443;51.448;7.028;2023-02-23T08:37:39;31.13;;;18.57;;
912;SDS011;443;51.448;7.028;2023-02-23T08:40:07;31.60;;;17.60;;
912;SDS011;443;51.448;7.028;2023-02-23T08:42:36;34.87;;;20.37;;
912;SDS011;443;51.448;7.028;2023-02-23T08:45:03;30.93;;;18.13;;
912;SDS011;443;51.448;7.028;2023-02-23T08:47:30;33.43;;;17.63;;
912;SDS011;443;51.448;7.028;2023-02-23T08:49:58;38.10;;;18.17;;
912;SDS011;443;51.448;7.028;2023-02-23T08:52:26;31.80;;;19.33;;
912;SDS011;443;51.448;7.028;2023-02-23T08:54:53;41.70;;;21.47;;
912;SDS011;443;51.448;7.028;2023-02-23T08:57:21;40.63;;;20.57;;
912;SDS011;443;51.448;7.028;2023-02-23T08:59:48;33.63;;;17.60;;
912;SDS011;443;51.448;7.028;2023-02-23T09:02:15;31.77;;;18.57;;
912;SDS011;443;51.448;7.028;2023-02-23T09:04:42;28.90;;;17.03;;
912;SDS011;443;51.448;7.028;2023-02-23T09:07:12;28.17;;;16.73;;
912;SDS011;443;51.448;7.028;2023-02-23T09:09:42;30.07;;;16.70;;
912;SDS011;443;51.448;7.028;2023-02-23T09:12:09;29.60;;;16.23;;
912;SDS011;443;51.448;7.028;2023-02-23T09:14:36;30.40;;;18.10;;
912;SDS011;443;51.448;7.028;2023-02-23T09:17:02;35.30;;;17.23;;
912;SDS011;443;51.448;7.028;2023-02-23T09:19:29;28.93;;;17.90;;
912;SDS011;443;51.448;7.028;2023-02-23T09:21:56;26.77;;;16.03;;
912;SDS011;443;51.448;7.028;2023-02-23T09:24:23;24.27;;;15.20;;
912;SDS011;443;51.448;7.028;2023-02-23T09:26:51;24.60;;;14.93;;
912;SDS011;443;51.448;7.028;2023-02-23T09:29:18;28.93;;;16.43;;
912;SDS011;443;51.448;7.028;2023-02-23T09:31:45;27.97;;;15.27;;
912;SDS011;443;51.448;7.028;2023-02-23T09:34:12;25.90;;;15.03;;
912;SDS011;443;51.448;7.028;2023-02-23T09:36:39;24.30;;;16.07;;
912;SDS011;443;51.448;7.028;2023-02-23T09:39:06;23.00;;;14.40;;
912;SDS011;443;51.448;7.028;2023-02-23T09:41:44;25.60;;;16.43;;
912;SDS011;443;51.448;7.028;2023-02-23T09:44:22;24.90;;;15.73;;
912;SDS011;443;51.448;7.028;2023-02-23T09:47:04;26.10;;;14.50;;
912;SDS011;443;51.448;7.028;2023-02-23T09:49:43;18.20;;;14.50;;
912;SDS011;443;51.448;7.028;2023-02-23T09:52:14;18.13;;;11.93;;
912;SDS011;443;51.448;7.028;2023-02-23T09:54:43;19.57;;;12.37;;
912;SDS011;443;51.448;7.028;2023-02-23T09:57:12;18.90;;;12.33;;
912;SDS011;443;51.448;7.028;2023-02-23T09:59:43;23.60;;;13.10;;
912;SDS011;443;51.448;7.028;2023-02-23T10:02:14;21.67;;;12.53;;
912;SDS011;443;51.448;7.028;2023-02-23T10:04:48;18.87;;;12.33;;
912;SDS011;443;51.448;7.028;2023-02-23T10:07:19;16.53;;;11.83;;
912;SDS011;443;51.448;7.028;2023-02-23T10:09:54;18.43;;;12.37;;
912;SDS011;443;51.448;7.028;2023-02-23T10:12:29;15.17;;;11.03;;
912;SDS011;443;51.448;7.028;2023-02-23T10:15:08;20.83;;;12.33;;
912;SDS011;443;51.448;7.028;2023-02-23T10:17:54;22.00;;;14.73;;
912;SDS011;443;51.448;7.028;2023-02-23T10:20:35;24.13;;;14.27;;
912;SDS011;443;51.448;7.028;2023-02-23T10:23:11;18.40;;;12.20;;
912;SDS011;443;51.448;7.028;2023-02-23T10:25:42;17.20;;;12.63;;
912;SDS011;443;51.448;7.028;2023-02-23T10:28:12;18.50;;;10.43;;
912;SDS011;443;51.448;7.028;2023-02-23T10:30:43;19.50;;;12.47;;
912;SDS011;443;51.448;7.028;2023-02-23T10:33:12;21.23;;;11.90;;
912;SDS011;443;51.448;7.028;2023-02-23T10:35:42;21.63;;;14.90;;
912;SDS011;443;51.448;7.028;2023-02-23T10:38:12;19.90;;;13.40;;
912;SDS011;443;51.448;7.028;2023-02-23T10:40:40;19.73;;;13.40;;
912;SDS011;443;51.448;7.028;2023-02-23T10:43:09;24.20;;;15.00;;
912;SDS011;443;51.448;7.028;2023-02-23T10:45:38;23.30;;;13.30;;
912;SDS011;443;51.448;7.028;2023-02-23T10:48:15;23.67;;;12.97;;
912;SDS011;443;51.448;7.028;2023-02-23T10:50:45;22.03;;;12.37;;
912;SDS011;443;51.448;7.028;2023-02-23T10:53:15;23.90;;;15.13;;
912;SDS011;443;51.448;7.028;2023-02-23T10:55:47;21.80;;;13.00;;
912;SDS011;443;51.448;7.028;2023-02-23T10:58:27;22.47;;;13.77;;
912;SDS011;443;51.448;7.028;2023-02-23T11:00:55;27.73;;;16.23;;
912;SDS011;443;51.448;7.028;2023-02-23T11:03:28;23.77;;;13.80;;
912;SDS011;443;51.448;7.028;2023-02-23T11:05:58;27.13;;;14.90;;
912;SDS011;443;51.448;7.028;2023-02-23T11:08:26;24.83;;;14.37;;
912;SDS011;443;51.448;7.028;2023-02-23T11:10:56;25.23;;;17.67;;
912;SDS011;443;51.448;7.028;2023-02-23T11:13:34;22.03;;;15.07;;
912;SDS011;443;51.448;7.028;2023-02-23T11:16:03;22.87;;;14.03;;
912;SDS011;443;51.448;7.028;2023-02-23T11:18:35;25.60;;;13.50;;
912;SDS011;443;51.448;7.028;2023-02-23T11:21:07;28.33;;;16.20;;
912;SDS011;443;51.448;7.028;2023-02-23T11:23:36;23.23;;;13.60;;
912;SDS011;443;51.448;7.028;2023-02-23T11:26:13;23.30;;;14.40;;
912;SDS011;443;51.448;7.028;2023-02-23T11:28:47;15.80;;;10.40;;
912;SDS011;443;51.448;7.028;2023-02-23T11:31:18;7.70;;;4.67;;
912;SDS011;443;51.448;7.028;2023-02-23T11:33:48;15.23;;;8.63;;
912;SDS011;443;51.448;7.028;2023-02-23T11:36:24;21.67;;;12.90;;
912;SDS011;443;51.448;7.028;2023-02-23T11:39:01;23.03;;;14.47;;
912;SDS011;443;51.448;7.028;2023-02-23T11:41:30;23.63;;;13.77;;
912;SDS011;443;51.448;7.028;2023-02-23T11:43:59;21.77;;;12.83;;
912;SDS011;443;51.448;7.028;2023-02-23T11:46:29;26.77;;;15.87;;
912;SDS011;443;51.448;7.028;2023-02-23T11:49:00;22.90;;;14.77;;
912;SDS011;443;51.448;7.028;2023-02-23T11:51:30;29.30;;;15.83;;
912;SDS011;443;51.448;7.028;2023-02-23T11:53:58;28.87;;;15.47;;
912;SDS011;443;51.448;7.028;2023-02-23T11:56:27;23.83;;;13.73;;
912;SDS011;443;51.448;7.028;2023-02-23T11:58:57;28.27;;;15.13;;
912;SDS011;443;51.448;7.028;2023-02-23T12:01:34;25.53;;;14.97;;
912;SDS011;443;51.448;7.028;2023-02-23T12:04:09;24.70;;;12.03;;
912;SDS011;443;51.448;7.028;2023-02-23T12:06:50;22.60;;;12.23;;
912;SDS011;443;51.448;7.028;2023-02-23T12:09:19;21.57;;;13.57;;
912;SDS011;443;51.448;7.028;2023-02-23T12:11:50;25.20;;;12.10;;
912;SDS011;443;51.448;7.028;2023-02-23T12:14:25;23.63;;;13.90;;
912;SDS011;443;51.448;7.028;2023-02-23T12:16:58;22.33;;;13.57;;
912;SDS011;443;51.448;7.028;2023-02-23T12:19:31;22.50;;;13.10;;
912;SDS011;443;51.448;7.028;2023-02-23T12:22:02;18.63;;;11.40;;
912;SDS011;443;51.448;7.028;2023-02-23T12:24:46;22.20;;;11.47;;
912;SDS011;443;51.448;7.028;2023-02-23T12:27:18;22.63;;;10.43;;
912;SDS011;443;51.448;7.028;2023-02-23T12:29:53;22.07;;;11.83;;
912;SDS011;443;51.448;7.028;2023-02-23T12:32:33;22.10;;;11.63;;
912;SDS011;443;51.448;7.028;2023-02-23T12:35:09;17.13;;;10.83;;
912;SDS011;443;51.448;7.028;2023-02-23T12:37:40;19.23;;;11.50;;
912;SDS011;443;51.448;7.028;2023-02-23T12:40:13;19.23;;;11.60;;
912;SDS011;443;51.448;7.028;2023-02-23T12:42:43;16.33;;;10.33;;
912;SDS011;443;51.448;7.028;2023-02-23T12:45:20;21.67;;;11.10;;
912;SDS011;443;51.448;7.028;2023-02-23T12:47:55;18.53;;;11.67;;
912;SDS011;443;51.448;7.028;2023-02-23T12:50:30;20.77;;;11.83;;
912;SDS011;443;51.448;7.028;2023-02-23T12:53:03;24.07;;;12.30;;
912;SDS011;443;51.448;7.028;2023-02-23T12:55:40;19.20;;;10.93;;
912;SDS011;443;51.448;7.028;2023-02-23T12:58:17;17.37;;;9.83;;
912;SDS011;443;51.448;7.028;2023-02-23T13:00:54;18.97;;;11.53;;
912;SDS011;443;51.448;7.028;2023-02-23T13:06:17;18.60;;;11.97;;
912;SDS011;443;51.448;7.028;2023-02-23T13:08:57;21.23;;;13.20;;
912;SDS011;443;51.448;7.028;2023-02-23T13:11:43;18.67;;;12.10;;
912;SDS011;443;51.448;7.028;2023-02-23T13:14:20;18.77;;;11.37;;
912;SDS011;443;51.448;7.028;2023-02-23T13:16:56;18.37;;;12.23;;
912;SDS011;443;51.448;7.028;2023-02-23T13:19:29;23.60;;;12.23;;
912;SDS011;443;51.448;7.028;2023-02-23T13:22:04;19.37;;;10.67;;
912;SDS011;443;51.448;7.028;2023-02-23T13:24:42;20.00;;;9.53;;
912;SDS011;443;51.448;7.028;2023-02-23T13:27:13;20.50;;;11.23;;
912;SDS011;443;51.448;7.028;2023-02-23T13:29:44;17.53;;;9.20;;
912;SDS011;443;51.448;7.028;2023-02-23T13:32:13;17.83;;;9.83;;
912;SDS011;443;51.448;7.028;2023-02-23T13:34:44;18.53;;;12.23;;
912;SDS011;443;51.448;7.028;2023-02-23T13:37:18;16.87;;;10.87;;
912;SDS011;443;51.448;7.028;2023-02-23T13:39:54;17.60;;;9.23;;
912;SDS011;443;51.448;7.028;2023-02-23T13:45:22;16.13;;;9.77;;
912;SDS011;443;51.448;7.028;2023-02-23T13:47:57;16.63;;;10.33;;
912;SDS011;443;51.448;7.028;2023-02-23T13:50:30;12.80;;;7.27;;
912;SDS011;443;51.448;7.028;2023-02-23T13:53:13;7.27;;;5.33;;
912;SDS011;443;51.448;7.028;2023-02-23T13:56:06;11.27;;;8.80;;
912;SDS011;443;51.448;7.028;2023-02-23T13:58:34;16.77;;;8.20;;
912;SDS011;443;51.448;7.028;2023-02-23T14:01:03;15.97;;;9.10;;
912;SDS011;443;51.448;7.028;2023-02-23T14:03:39;14.40;;;8.93;;
912;SDS011;443;51.448;7.028;2023-02-23T14:06:10;11.13;;;6.13;;
912;SDS011;443;51.448;7.028;2023-02-23T14:08:41;12.87;;;7.40;;
912;SDS011;443;51.448;7.028;2023-02-23T14:11:09;12.73;;;7.70;;
912;SDS011;443;51.448;7.028;2023-02-23T14:13:58;16.37;;;9.37;;
912;SDS011;443;51.448;7.028;2023-02-23T14:16:26;14.00;;;7.07;;
912;SDS011;443;51.448;7.028;2023-02-23T14:18:54;11.83;;;6.30;;
912;SDS011;443;51.448;7.028;2023-02-23T14:21:32;10.37;;;5.67;;
912;SDS011;443;51.448;7.028;2023-02-23T14:24:14;13.93;;;7.40;;
912;SDS011;443;51.448;7.028;2023-02-23T14:26:44;15.53;;;7.60;;
912;SDS011;443;51.448;7.028;2023-02-23T14:29:28;14.07;;;7.93;;
912;SDS011;443;51.448;7.028;2023-02-23T14:32:00;14.53;;;7.03;;
912;SDS011;443;51.448;7.028;2023-02-23T14:34:42;13.63;;;7.03;;
912;SDS011;443;51.448;7.028;2023-02-23T14:37:13;14.17;;;8.70;;
912;SDS011;443;51.448;7.028;2023-02-23T14:39:43;16.40;;;8.93;;
912;SDS011;443;51.448;7.028;2023-02-23T14:42:18;14.00;;;8.20;;
912;SDS011;443;51.448;7.028;2023-02-23T14:44:48;17.30;;;8.70;;
912;SDS011;443;51.448;7.028;2023-02-23T14:47:17;11.97;;;7.77;;
912;SDS011;443;51.448;7.028;2023-02-23T14:49:47;13.37;;;9.20;;
912;SDS011;443;51.448;7.028;2023-02-23T14:52:18;14.10;;;7.80;;
912;SDS011;443;51.448;7.028;2023-02-23T14:54:50;14.27;;;8.03;;
912;SDS011;443;51.448;7.028;2023-02-23T14:57:19;14.17;;;8.67;;
912;SDS011;443;51.448;7.028;2023-02-23T14:59:57;14.27;;;7.97;;
912;SDS011;443;51.448;7.028;2023-02-23T15:02:25;16.07;;;10.60;;
912;SDS011;443;51.448;7.028;2023-02-23T15:04:53;15.20;;;9.00;;
912;SDS011;443;51.448;7.028;2023-02-23T15:07:21;16.40;;;9.60;;
912;SDS011;443;51.448;7.028;2023-02-23T15:09:57;14.17;;;9.00;;
912;SDS011;443;51.448;7.028;2023-02-23T15:12:26;14.93;;;9.73;;
912;SDS011;443;51.448;7.028;2023-02-23T15:14:55;12.90;;;8.93;;
912;SDS011;443;51.448;7.028;2023-02-23T15:17:24;16.63;;;10.03;;
912;SDS011;443;51.448;7.028;2023-02-23T15:19:54;20.63;;;9.77;;
912;SDS011;443;51.448;7.028;2023-02-23T15:22:24;16.80;;;8.57;;
912;SDS011;443;51.448;7.028;2023-02-23T15:24:54;16.57;;;8.53;;
912;SDS011;443;51.448;7.028;2023-02-23T15:27:28;13.40;;;9.67;;
912;SDS011;443;51.448;7.028;2023-02-23T15:29:56;14.17;;;9.93;;
912;SDS011;443;51.448;7.028;2023-02-23T15:32:24;17.00;;;10.93;;
912;SDS011;443;51.448;7.028;2023-02-23T15:34:51;19.13;;;9.47;;
912;SDS011;443;51.448;7.028;2023-02-23T15:37:22;16.90;;;10.40;;
912;SDS011;443;51.448;7.028;2023-02-23T15:39:57;22.07;;;9.70;;
912;SDS011;443;51.448;7.028;2023-02-23T15:42:27;12.50;;;7.83;;
912;SDS011;443;51.448;7.028;2023-02-23T15:45:02;14.80;;;9.10;;
912;SDS011;443;51.448;7.028;2023-02-23T15:47:34;21.57;;;12.60;;
912;SDS011;443;51.448;7.028;2023-02-23T15:50:03;18.73;;;10.07;;
912;SDS011;443;51.448;7.028;2023-02-23T15:52:34;18.27;;;9.50;;
912;SDS011;443;51.448;7.028;2023-02-23T15:55:12;15.10;;;8.43;;
912;SDS011;443;51.448;7.028;2023-02-23T15:57:44;14.60;;;8.67;;
912;SDS011;443;51.448;7.028;2023-02-23T16:00:15;20.77;;;10.50;;